sensor_id;sensor_type;location;lat;lon;timestamp;P1;durP1;ratioP1;P2;durP2;ratioP2
16516;SDS011;8371;52.272;9.746;2023-07-24T00:01:57;0.50;;;0.50;;
16516;SDS011;8371;52.272;9.746;2023-07-24T00:04:22;0.53;;;0.53;;
16516;SDS011;8371;52.272;9.746;2023-07-24T00:06:48;0.73;;;0.73;;
16516;SDS011;8371;52.272;9.746;2023-07-24T00:09:14;0.60;;;0.60;;
16516;SDS011;8371;52.272;9.746;2023-07-24T00:11:40;0.50;;;0.50;;
16516;SDS011;8371;52.272;9.746;2023-07-24T00:14:06;0.60;;;0.60;;
16516;SDS011;8371;52.272;9.746;2023-07-24T00:16:32;0.50;;;0.50;;
16516;SDS011;8371;52.272;9.746;2023-07-24T00:18:57;0.73;;;0.73;;
16516;SDS011;8371;52.272;9.746;2023-07-24T00:21:23;0.63;;;0.63;;
16516;SDS011;8371;52.272;9.746;2023-07-24T00:23:48;0.53;;;0.53;;
16516;SDS011;8371;52.272;9.746;2023-07-24T00:26:14;0.73;;;0.73;;
16516;SDS011;8371;52.272;9.746;2023-07-24T00:28:40;0.70;;;0.70;;
16516;SDS011;8371;52.272;9.746;2023-07-24T00:31:06;0.60;;;0.60;;
16516;SDS011;8371;52.272;9.746;2023-07-24T00:33:31;0.57;;;0.57;;
16516;SDS011;8371;52.272;9.746;2023-07-24T00:35:57;0.67;;;0.67;;
16516;SDS011;8371;52.272;9.746;2023-07-24T00:38:23;0.70;;;0.70;;
16516;SDS011;8371;52.272;9.746;2023-07-24T00:40:49;0.67;;;0.67;;
16516;SDS011;8371;52.272;9.746;2023-07-24T00:43:15;0.70;;;0.70;;
16516;SDS011;8371;52.272;9.746;2023-07-24T00:45:42;0.77;;;0.77;;
16516;SDS011;8371;52.272;9.746;2023-07-24T00:48:07;0.67;;;0.67;;
16516;SDS011;8371;52.272;9.746;2023-07-24T00:50:33;0.63;;;0.60;;
16516;SDS011;8371;52.272;9.746;2023-07-24T00:53:01;0.90;;;0.90;;
16516;SDS011;8371;52.272;9.746;2023-07-24T00:55:27;0.67;;;0.67;;
16516;SDS011;8371;52.272;9.746;2023-07-24T00:57:53;0.90;;;0.90;;
16516;SDS011;8371;52.272;9.746;2023-07-24T01:00:19;0.70;;;0.70;;
16516;SDS011;8371;52.272;9.746;2023-07-24T01:02:45;1.00;;;1.00;;
16516;SDS011;8371;52.272;9.746;2023-07-24T01:05:12;1.23;;;1.23;;
16516;SDS011;8371;52.272;9.746;2023-07-24T01:07:39;0.83;;;0.83;;
16516;SDS011;8371;52.272;9.746;2023-07-24T01:10:06;0.80;;;0.80;;
16516;SDS011;8371;52.272;9.746;2023-07-24T01:12:36;0.80;;;0.80;;
16516;SDS011;8371;52.272;9.746;2023-07-24T01:15:12;0.70;;;0.70;;
16516;SDS011;8371;52.272;9.746;2023-07-24T01:17:42;1.00;;;1.00;;
16516;SDS011;8371;52.272;9.746;2023-07-24T01:20:09;0.80;;;0.80;;
16516;SDS011;8371;52.272;9.746;2023-07-24T01:22:38;0.77;;;0.77;;
16516;SDS011;8371;52.272;9.746;2023-07-24T01:25:10;0.97;;;0.97;;
16516;SDS011;8371;52.272;9.746;2023-07-24T01:27:44;1.00;;;1.00;;
16516;SDS011;8371;52.272;9.746;2023-07-24T01:30:13;1.30;;;1.30;;
16516;SDS011;8371;52.272;9.746;2023-07-24T01:32:40;1.10;;;1.10;;
16516;SDS011;8371;52.272;9.746;2023-07-24T01:35:06;1.20;;;1.20;;
16516;SDS011;8371;52.272;9.746;2023-07-24T01:37:33;0.90;;;0.90;;
16516;SDS011;8371;52.272;9.746;2023-07-24T01:39:59;1.20;;;1.20;;
16516;SDS011;8371;52.272;9.746;2023-07-24T01:42:26;1.20;;;1.20;;
16516;SDS011;8371;52.272;9.746;2023-07-24T01:44:53;1.03;;;1.03;;
16516;SDS011;8371;52.272;9.746;2023-07-24T01:47:20;1.00;;;1.00;;
16516;SDS011;8371;52.272;9.746;2023-07-24T01:49:45;0.93;;;0.93;;
16516;SDS011;8371;52.272;9.746;2023-07-24T01:52:11;0.90;;;0.90;;
16516;SDS011;8371;52.272;9.746;2023-07-24T01:54:37;1.03;;;1.03;;
16516;SDS011;8371;52.272;9.746;2023-07-24T01:57:03;0.80;;;0.80;;
16516;SDS011;8371;52.272;9.746;2023-07-24T01:59:29;1.00;;;1.00;;
16516;SDS011;8371;52.272;9.746;2023-07-24T02:01:54;1.00;;;1.00;;
16516;SDS011;8371;52.272;9.746;2023-07-24T02:04:20;0.90;;;0.90;;
16516;SDS011;8371;52.272;9.746;2023-07-24T02:06:52;1.17;;;1.17;;
16516;SDS011;8371;52.272;9.746;2023-07-24T02:09:15;1.03;;;1.03;;
16516;SDS011;8371;52.272;9.746;2023-07-24T02:11:43;0.90;;;0.90;;
16516;SDS011;8371;52.272;9.746;2023-07-24T02:14:08;1.00;;;1.00;;
16516;SDS011;8371;52.272;9.746;2023-07-24T02:16:35;0.73;;;0.73;;
16516;SDS011;8371;52.272;9.746;2023-07-24T02:19:01;1.13;;;1.13;;
16516;SDS011;8371;52.272;9.746;2023-07-24T02:21:26;1.00;;;1.00;;
16516;SDS011;8371;52.272;9.746;2023-07-24T02:23:52;1.20;;;1.20;;
16516;SDS011;8371;52.272;9.746;2023-07-24T02:26:18;0.90;;;0.90;;
16516;SDS011;8371;52.272;9.746;2023-07-24T02:28:43;0.90;;;0.90;;
16516;SDS011;8371;52.272;9.746;2023-07-24T02:31:09;0.80;;;0.80;;
16516;SDS011;8371;52.272;9.746;2023-07-24T02:33:35;1.00;;;1.00;;
16516;SDS011;8371;52.272;9.746;2023-07-24T02:36:01;1.10;;;0.83;;
16516;SDS011;8371;52.272;9.746;2023-07-24T02:38:27;1.00;;;1.00;;
16516;SDS011;8371;52.272;9.746;2023-07-24T02:40:52;0.77;;;0.77;;
16516;SDS011;8371;52.272;9.746;2023-07-24T02:43:18;0.80;;;0.80;;
16516;SDS011;8371;52.272;9.746;2023-07-24T02:45:44;0.73;;;0.73;;
16516;SDS011;8371;52.272;9.746;2023-07-24T02:48:09;1.00;;;1.00;;
16516;SDS011;8371;52.272;9.746;2023-07-24T02:50:35;0.80;;;0.80;;
16516;SDS011;8371;52.272;9.746;2023-07-24T02:53:01;0.83;;;0.83;;
16516;SDS011;8371;52.272;9.746;2023-07-24T02:55:26;0.70;;;0.70;;
16516;SDS011;8371;52.272;9.746;2023-07-24T02:57:52;0.83;;;0.83;;
16516;SDS011;8371;52.272;9.746;2023-07-24T03:00:18;0.90;;;0.90;;
16516;SDS011;8371;52.272;9.746;2023-07-24T03:02:44;0.70;;;0.70;;
16516;SDS011;8371;52.272;9.746;2023-07-24T03:05:10;0.93;;;0.93;;
16516;SDS011;8371;52.272;9.746;2023-07-24T03:07:35;0.77;;;0.77;;
16516;SDS011;8371;52.272;9.746;2023-07-24T03:10:02;0.93;;;0.93;;
16516;SDS011;8371;52.272;9.746;2023-07-24T03:12:28;0.80;;;0.80;;
16516;SDS011;8371;52.272;9.746;2023-07-24T03:14:54;0.97;;;0.97;;
16516;SDS011;8371;52.272;9.746;2023-07-24T03:17:20;0.90;;;0.90;;
16516;SDS011;8371;52.272;9.746;2023-07-24T03:19:45;0.83;;;0.83;;
16516;SDS011;8371;52.272;9.746;2023-07-24T03:22:13;1.03;;;1.03;;
16516;SDS011;8371;52.272;9.746;2023-07-24T03:24:38;0.77;;;0.77;;
16516;SDS011;8371;52.272;9.746;2023-07-24T03:27:04;0.60;;;0.60;;
16516;SDS011;8371;52.272;9.746;2023-07-24T03:29:30;0.93;;;0.93;;
16516;SDS011;8371;52.272;9.746;2023-07-24T03:31:55;0.80;;;0.80;;
16516;SDS011;8371;52.272;9.746;2023-07-24T03:34:21;0.93;;;0.93;;
16516;SDS011;8371;52.272;9.746;2023-07-24T03:36:47;0.80;;;0.80;;
16516;SDS011;8371;52.272;9.746;2023-07-24T03:39:12;0.60;;;0.60;;
16516;SDS011;8371;52.272;9.746;2023-07-24T03:41:38;0.83;;;0.83;;
16516;SDS011;8371;52.272;9.746;2023-07-24T03:44:04;0.90;;;0.90;;
16516;SDS011;8371;52.272;9.746;2023-07-24T03:46:34;0.80;;;0.80;;
16516;SDS011;8371;52.272;9.746;2023-07-24T03:48:58;0.73;;;0.73;;
16516;SDS011;8371;52.272;9.746;2023-07-24T03:51:24;1.13;;;1.13;;
16516;SDS011;8371;52.272;9.746;2023-07-24T03:53:49;0.97;;;0.97;;
16516;SDS011;8371;52.272;9.746;2023-07-24T03:56:15;0.80;;;0.80;;
16516;SDS011;8371;52.272;9.746;2023-07-24T03:58:41;0.73;;;0.73;;
16516;SDS011;8371;52.272;9.746;2023-07-24T04:01:07;0.90;;;0.90;;
16516;SDS011;8371;52.272;9.746;2023-07-24T04:03:34;0.57;;;0.57;;
16516;SDS011;8371;52.272;9.746;2023-07-24T04:06:00;1.13;;;0.67;;
16516;SDS011;8371;52.272;9.746;2023-07-24T04:08:26;1.50;;;0.70;;
16516;SDS011;8371;52.272;9.746;2023-07-24T04:10:51;0.50;;;0.50;;
16516;SDS011;8371;52.272;9.746;2023-07-24T04:13:17;0.60;;;0.60;;
16516;SDS011;8371;52.272;9.746;2023-07-24T04:15:43;2.07;;;0.73;;
16516;SDS011;8371;52.272;9.746;2023-07-24T04:18:10;0.60;;;0.60;;
16516;SDS011;8371;52.272;9.746;2023-07-24T04:20:36;0.87;;;0.87;;
16516;SDS011;8371;52.272;9.746;2023-07-24T04:23:02;0.70;;;0.70;;
16516;SDS011;8371;52.272;9.746;2023-07-24T04:25:27;0.90;;;0.90;;
16516;SDS011;8371;52.272;9.746;2023-07-24T04:27:53;0.90;;;0.90;;
16516;SDS011;8371;52.272;9.746;2023-07-24T04:30:19;0.90;;;0.90;;
16516;SDS011;8371;52.272;9.746;2023-07-24T04:32:44;0.80;;;0.80;;
16516;SDS011;8371;52.272;9.746;2023-07-24T04:35:11;0.80;;;0.80;;
16516;SDS011;8371;52.272;9.746;2023-07-24T04:37:37;1.20;;;1.20;;
16516;SDS011;8371;52.272;9.746;2023-07-24T04:40:03;0.77;;;0.77;;
16516;SDS011;8371;52.272;9.746;2023-07-24T04:42:30;1.17;;;1.17;;
16516;SDS011;8371;52.272;9.746;2023-07-24T04:44:56;0.90;;;0.90;;
16516;SDS011;8371;52.272;9.746;2023-07-24T04:47:21;0.90;;;0.90;;
16516;SDS011;8371;52.272;9.746;2023-07-24T04:49:47;0.93;;;0.93;;
16516;SDS011;8371;52.272;9.746;2023-07-24T04:52:13;0.70;;;0.70;;
16516;SDS011;8371;52.272;9.746;2023-07-24T04:54:39;0.83;;;0.83;;
16516;SDS011;8371;52.272;9.746;2023-07-24T04:57:04;0.73;;;0.73;;
16516;SDS011;8371;52.272;9.746;2023-07-24T04:59:30;0.70;;;0.70;;
16516;SDS011;8371;52.272;9.746;2023-07-24T05:01:56;0.60;;;0.60;;
16516;SDS011;8371;52.272;9.746;2023-07-24T05:04:21;0.83;;;0.83;;
16516;SDS011;8371;52.272;9.746;2023-07-24T05:06:47;1.10;;;1.10;;
16516;SDS011;8371;52.272;9.746;2023-07-24T05:09:13;2.57;;;0.80;;
16516;SDS011;8371;52.272;9.746;2023-07-24T05:11:40;0.80;;;0.80;;
16516;SDS011;8371;52.272;9.746;2023-07-24T05:14:07;0.77;;;0.77;;
16516;SDS011;8371;52.272;9.746;2023-07-24T05:16:33;1.00;;;1.00;;
16516;SDS011;8371;52.272;9.746;2023-07-24T05:18:58;0.80;;;0.80;;
16516;SDS011;8371;52.272;9.746;2023-07-24T05:21:24;0.90;;;0.90;;
16516;SDS011;8371;52.272;9.746;2023-07-24T05:23:50;0.80;;;0.80;;
16516;SDS011;8371;52.272;9.746;2023-07-24T05:26:15;0.80;;;0.80;;
16516;SDS011;8371;52.272;9.746;2023-07-24T05:28:41;0.70;;;0.70;;
16516;SDS011;8371;52.272;9.746;2023-07-24T05:31:07;0.80;;;0.80;;
16516;SDS011;8371;52.272;9.746;2023-07-24T05:33:33;0.70;;;0.70;;
16516;SDS011;8371;52.272;9.746;2023-07-24T05:35:59;0.77;;;0.77;;
16516;SDS011;8371;52.272;9.746;2023-07-24T05:38:26;1.10;;;1.10;;
16516;SDS011;8371;52.272;9.746;2023-07-24T05:40:59;1.07;;;1.07;;
16516;SDS011;8371;52.272;9.746;2023-07-24T05:43:24;0.70;;;0.70;;
16516;SDS011;8371;52.272;9.746;2023-07-24T05:45:50;0.90;;;0.90;;
16516;SDS011;8371;52.272;9.746;2023-07-24T05:48:17;0.87;;;0.87;;
16516;SDS011;8371;52.272;9.746;2023-07-24T05:50:43;3.83;;;0.87;;
16516;SDS011;8371;52.272;9.746;2023-07-24T05:53:08;1.13;;;1.03;;
16516;SDS011;8371;52.272;9.746;2023-07-24T05:55:34;0.87;;;0.87;;
16516;SDS011;8371;52.272;9.746;2023-07-24T05:58:00;1.03;;;0.90;;
16516;SDS011;8371;52.272;9.746;2023-07-24T06:00:25;0.83;;;0.83;;
16516;SDS011;8371;52.272;9.746;2023-07-24T06:02:52;0.70;;;0.70;;
16516;SDS011;8371;52.272;9.746;2023-07-24T06:05:18;0.73;;;0.73;;
16516;SDS011;8371;52.272;9.746;2023-07-24T06:07:45;0.87;;;0.87;;
16516;SDS011;8371;52.272;9.746;2023-07-24T06:10:11;0.80;;;0.80;;
16516;SDS011;8371;52.272;9.746;2023-07-24T06:12:38;0.80;;;0.80;;
16516;SDS011;8371;52.272;9.746;2023-07-24T06:15:04;0.90;;;0.90;;
16516;SDS011;8371;52.272;9.746;2023-07-24T06:17:30;0.90;;;0.90;;
16516;SDS011;8371;52.272;9.746;2023-07-24T06:19:56;0.93;;;0.90;;
16516;SDS011;8371;52.272;9.746;2023-07-24T06:22:22;0.63;;;0.63;;
16516;SDS011;8371;52.272;9.746;2023-07-24T06:24:48;0.80;;;0.80;;
16516;SDS011;8371;52.272;9.746;2023-07-24T06:27:14;0.80;;;0.80;;
16516;SDS011;8371;52.272;9.746;2023-07-24T06:29:40;1.03;;;1.03;;
16516;SDS011;8371;52.272;9.746;2023-07-24T06:32:06;1.37;;;1.37;;
16516;SDS011;8371;52.272;9.746;2023-07-24T06:34:32;1.40;;;1.13;;
16516;SDS011;8371;52.272;9.746;2023-07-24T06:36:58;2.73;;;0.90;;
16516;SDS011;8371;52.272;9.746;2023-07-24T06:39:24;1.20;;;1.20;;
16516;SDS011;8371;52.272;9.746;2023-07-24T06:41:53;1.07;;;1.07;;
16516;SDS011;8371;52.272;9.746;2023-07-24T06:44:19;2.23;;;1.07;;
16516;SDS011;8371;52.272;9.746;2023-07-24T06:46:44;1.00;;;1.00;;
16516;SDS011;8371;52.272;9.746;2023-07-24T06:49:10;1.10;;;1.10;;
16516;SDS011;8371;52.272;9.746;2023-07-24T06:51:36;1.00;;;1.00;;
16516;SDS011;8371;52.272;9.746;2023-07-24T06:54:03;1.17;;;1.17;;
16516;SDS011;8371;52.272;9.746;2023-07-24T06:56:31;1.00;;;1.00;;
16516;SDS011;8371;52.272;9.746;2023-07-24T06:58:57;1.20;;;1.20;;
16516;SDS011;8371;52.272;9.746;2023-07-24T07:01:23;1.43;;;1.43;;
16516;SDS011;8371;52.272;9.746;2023-07-24T07:03:48;1.17;;;1.17;;
16516;SDS011;8371;52.272;9.746;2023-07-24T07:06:14;1.30;;;1.30;;
16516;SDS011;8371;52.272;9.746;2023-07-24T07:08:40;1.10;;;1.10;;
16516;SDS011;8371;52.272;9.746;2023-07-24T07:11:06;1.20;;;1.20;;
16516;SDS011;8371;52.272;9.746;2023-07-24T07:13:31;1.10;;;1.10;;
16516;SDS011;8371;52.272;9.746;2023-07-24T07:15:57;1.20;;;1.20;;
16516;SDS011;8371;52.272;9.746;2023-07-24T07:18:23;1.00;;;1.00;;
16516;SDS011;8371;52.272;9.746;2023-07-24T07:20:49;1.00;;;1.00;;
16516;SDS011;8371;52.272;9.746;2023-07-24T07:23:16;1.40;;;1.40;;
16516;SDS011;8371;52.272;9.746;2023-07-24T07:25:43;1.50;;;1.40;;
16516;SDS011;8371;52.272;9.746;2023-07-24T07:28:13;1.33;;;1.33;;
16516;SDS011;8371;52.272;9.746;2023-07-24T07:30:40;1.30;;;1.30;;
16516;SDS011;8371;52.272;9.746;2023-07-24T07:33:06;1.40;;;1.40;;
16516;SDS011;8371;52.272;9.746;2023-07-24T07:35:36;1.50;;;1.50;;
16516;SDS011;8371;52.272;9.746;2023-07-24T07:38:00;1.70;;;1.70;;
16516;SDS011;8371;52.272;9.746;2023-07-24T07:40:26;1.50;;;1.50;;
16516;SDS011;8371;52.272;9.746;2023-07-24T07:42:52;1.90;;;1.80;;
16516;SDS011;8371;52.272;9.746;2023-07-24T07:45:19;1.60;;;1.60;;
16516;SDS011;8371;52.272;9.746;2023-07-24T07:47:45;1.53;;;1.53;;
16516;SDS011;8371;52.272;9.746;2023-07-24T07:50:10;1.50;;;1.50;;
16516;SDS011;8371;52.272;9.746;2023-07-24T07:52:36;1.40;;;1.40;;
16516;SDS011;8371;52.272;9.746;2023-07-24T07:55:03;1.70;;;1.60;;
16516;SDS011;8371;52.272;9.746;2023-07-24T07:57:29;1.60;;;1.60;;
16516;SDS011;8371;52.272;9.746;2023-07-24T07:59:54;1.67;;;1.67;;
16516;SDS011;8371;52.272;9.746;2023-07-24T08:02:20;1.53;;;1.43;;
16516;SDS011;8371;52.272;9.746;2023-07-24T08:04:46;2.10;;;1.90;;
16516;SDS011;8371;52.272;9.746;2023-07-24T08:07:11;1.60;;;1.60;;
16516;SDS011;8371;52.272;9.746;2023-07-24T08:09:37;1.90;;;1.80;;
16516;SDS011;8371;52.272;9.746;2023-07-24T08:12:03;1.80;;;1.67;;
16516;SDS011;8371;52.272;9.746;2023-07-24T08:14:30;1.90;;;1.80;;
16516;SDS011;8371;52.272;9.746;2023-07-24T08:16:55;1.20;;;1.20;;
16516;SDS011;8371;52.272;9.746;2023-07-24T08:19:21;2.83;;;1.20;;
16516;SDS011;8371;52.272;9.746;2023-07-24T08:21:47;4.50;;;1.30;;
16516;SDS011;8371;52.272;9.746;2023-07-24T08:24:13;1.53;;;1.50;;
16516;SDS011;8371;52.272;9.746;2023-07-24T08:26:38;1.27;;;1.17;;
16516;SDS011;8371;52.272;9.746;2023-07-24T08:29:05;1.13;;;1.13;;
16516;SDS011;8371;52.272;9.746;2023-07-24T08:31:31;1.30;;;1.30;;
16516;SDS011;8371;52.272;9.746;2023-07-24T08:33:56;1.00;;;1.00;;
16516;SDS011;8371;52.272;9.746;2023-07-24T08:36:22;1.20;;;1.20;;
16516;SDS011;8371;52.272;9.746;2023-07-24T08:38:48;1.50;;;1.40;;
16516;SDS011;8371;52.272;9.746;2023-07-24T08:41:14;1.43;;;1.33;;
16516;SDS011;8371;52.272;9.746;2023-07-24T08:43:41;1.50;;;1.50;;
16516;SDS011;8371;52.272;9.746;2023-07-24T08:46:07;1.43;;;1.43;;
16516;SDS011;8371;52.272;9.746;2023-07-24T08:48:35;1.40;;;1.40;;
16516;SDS011;8371;52.272;9.746;2023-07-24T08:51:06;1.37;;;1.37;;
16516;SDS011;8371;52.272;9.746;2023-07-24T08:53:33;1.60;;;1.50;;
16516;SDS011;8371;52.272;9.746;2023-07-24T08:56:03;1.50;;;1.50;;
16516;SDS011;8371;52.272;9.746;2023-07-24T08:58:30;1.40;;;1.40;;
16516;SDS011;8371;52.272;9.746;2023-07-24T09:00:58;1.40;;;1.40;;
16516;SDS011;8371;52.272;9.746;2023-07-24T09:03:25;1.37;;;1.37;;
16516;SDS011;8371;52.272;9.746;2023-07-24T09:05:51;1.43;;;1.40;;
16516;SDS011;8371;52.272;9.746;2023-07-24T09:08:17;1.70;;;1.70;;
16516;SDS011;8371;52.272;9.746;2023-07-24T09:10:56;1.50;;;1.50;;
16516;SDS011;8371;52.272;9.746;2023-07-24T09:13:23;1.73;;;1.70;;
16516;SDS011;8371;52.272;9.746;2023-07-24T09:15:49;1.80;;;1.70;;
16516;SDS011;8371;52.272;9.746;2023-07-24T09:18:14;2.03;;;2.03;;
16516;SDS011;8371;52.272;9.746;2023-07-24T09:20:41;1.80;;;1.70;;
16516;SDS011;8371;52.272;9.746;2023-07-24T09:23:08;1.77;;;1.77;;
16516;SDS011;8371;52.272;9.746;2023-07-24T09:25:36;1.60;;;1.60;;
16516;SDS011;8371;52.272;9.746;2023-07-24T09:28:10;1.83;;;1.70;;
16516;SDS011;8371;52.272;9.746;2023-07-24T09:30:37;1.77;;;1.77;;
16516;SDS011;8371;52.272;9.746;2023-07-24T09:33:03;2.10;;;2.10;;
16516;SDS011;8371;52.272;9.746;2023-07-24T09:35:30;2.10;;;2.00;;
16516;SDS011;8371;52.272;9.746;2023-07-24T09:38:05;2.07;;;2.07;;
16516;SDS011;8371;52.272;9.746;2023-07-24T09:40:41;1.60;;;1.60;;
16516;SDS011;8371;52.272;9.746;2023-07-24T09:43:15;1.80;;;1.80;;
16516;SDS011;8371;52.272;9.746;2023-07-24T09:45:43;1.70;;;1.70;;
16516;SDS011;8371;52.272;9.746;2023-07-24T09:48:13;2.00;;;2.00;;
16516;SDS011;8371;52.272;9.746;2023-07-24T09:50:40;1.97;;;1.97;;
16516;SDS011;8371;52.272;9.746;2023-07-24T09:53:10;1.57;;;1.57;;
16516;SDS011;8371;52.272;9.746;2023-07-24T09:55:39;1.70;;;1.70;;
16516;SDS011;8371;52.272;9.746;2023-07-24T09:58:06;1.67;;;1.67;;
16516;SDS011;8371;52.272;9.746;2023-07-24T10:00:33;2.00;;;2.00;;
16516;SDS011;8371;52.272;9.746;2023-07-24T10:02:58;1.77;;;1.77;;
16516;SDS011;8371;52.272;9.746;2023-07-24T10:05:24;2.10;;;2.00;;
16516;SDS011;8371;52.272;9.746;2023-07-24T10:07:51;1.70;;;1.70;;
16516;SDS011;8371;52.272;9.746;2023-07-24T10:10:17;1.60;;;1.60;;
16516;SDS011;8371;52.272;9.746;2023-07-24T10:12:43;1.67;;;1.60;;
16516;SDS011;8371;52.272;9.746;2023-07-24T10:15:09;1.87;;;1.77;;
16516;SDS011;8371;52.272;9.746;2023-07-24T10:17:36;1.90;;;1.90;;
16516;SDS011;8371;52.272;9.746;2023-07-24T10:20:04;1.60;;;1.50;;
16516;SDS011;8371;52.272;9.746;2023-07-24T10:22:31;1.63;;;1.63;;
16516;SDS011;8371;52.272;9.746;2023-07-24T10:24:57;1.57;;;1.57;;
16516;SDS011;8371;52.272;9.746;2023-07-24T10:27:23;1.97;;;1.97;;
16516;SDS011;8371;52.272;9.746;2023-07-24T10:30:02;2.00;;;1.90;;
16516;SDS011;8371;52.272;9.746;2023-07-24T10:32:30;1.93;;;1.93;;
16516;SDS011;8371;52.272;9.746;2023-07-24T10:34:57;1.97;;;1.97;;
16516;SDS011;8371;52.272;9.746;2023-07-24T10:37:36;1.70;;;1.70;;
16516;SDS011;8371;52.272;9.746;2023-07-24T10:40:03;1.93;;;1.93;;
16516;SDS011;8371;52.272;9.746;2023-07-24T10:42:30;1.87;;;1.87;;
16516;SDS011;8371;52.272;9.746;2023-07-24T10:45:03;2.30;;;2.20;;
16516;SDS011;8371;52.272;9.746;2023-07-24T10:47:29;2.33;;;2.23;;
16516;SDS011;8371;52.272;9.746;2023-07-24T10:49:56;1.87;;;1.87;;
16516;SDS011;8371;52.272;9.746;2023-07-24T10:52:32;2.10;;;2.00;;
16516;SDS011;8371;52.272;9.746;2023-07-24T10:55:02;2.03;;;1.90;;
16516;SDS011;8371;52.272;9.746;2023-07-24T10:57:31;2.07;;;2.07;;
16516;SDS011;8371;52.272;9.746;2023-07-24T10:59:56;6.10;;;2.20;;
16516;SDS011;8371;52.272;9.746;2023-07-24T11:02:23;1.57;;;1.57;;
16516;SDS011;8371;52.272;9.746;2023-07-24T11:04:49;2.10;;;2.10;;
16516;SDS011;8371;52.272;9.746;2023-07-24T11:07:14;1.80;;;1.80;;
16516;SDS011;8371;52.272;9.746;2023-07-24T11:09:40;2.20;;;2.20;;
16516;SDS011;8371;52.272;9.746;2023-07-24T11:12:12;1.97;;;1.97;;
16516;SDS011;8371;52.272;9.746;2023-07-24T11:14:46;2.20;;;2.10;;
16516;SDS011;8371;52.272;9.746;2023-07-24T11:17:13;2.33;;;2.30;;
16516;SDS011;8371;52.272;9.746;2023-07-24T11:19:38;1.97;;;1.97;;
16516;SDS011;8371;52.272;9.746;2023-07-24T11:22:04;2.60;;;2.57;;
16516;SDS011;8371;52.272;9.746;2023-07-24T11:24:30;2.50;;;2.50;;
16516;SDS011;8371;52.272;9.746;2023-07-24T11:26:56;2.40;;;2.40;;
16516;SDS011;8371;52.272;9.746;2023-07-24T11:29:22;3.43;;;2.37;;
16516;SDS011;8371;52.272;9.746;2023-07-24T11:31:54;2.73;;;2.63;;
16516;SDS011;8371;52.272;9.746;2023-07-24T11:34:22;2.30;;;2.30;;
16516;SDS011;8371;52.272;9.746;2023-07-24T11:36:48;2.20;;;2.20;;
16516;SDS011;8371;52.272;9.746;2023-07-24T11:39:21;2.37;;;2.37;;
16516;SDS011;8371;52.272;9.746;2023-07-24T11:41:49;2.10;;;2.03;;
16516;SDS011;8371;52.272;9.746;2023-07-24T11:44:15;2.63;;;2.53;;
16516;SDS011;8371;52.272;9.746;2023-07-24T11:46:42;2.00;;;2.00;;
16516;SDS011;8371;52.272;9.746;2023-07-24T11:49:08;2.47;;;2.40;;
16516;SDS011;8371;52.272;9.746;2023-07-24T11:51:36;2.70;;;2.60;;
16516;SDS011;8371;52.272;9.746;2023-07-24T11:54:08;3.10;;;3.00;;
16516;SDS011;8371;52.272;9.746;2023-07-24T11:56:37;2.67;;;2.60;;
16516;SDS011;8371;52.272;9.746;2023-07-24T11:59:12;2.30;;;2.30;;
16516;SDS011;8371;52.272;9.746;2023-07-24T12:01:38;2.77;;;2.67;;
16516;SDS011;8371;52.272;9.746;2023-07-24T12:04:04;2.60;;;2.53;;
16516;SDS011;8371;52.272;9.746;2023-07-24T12:06:30;2.13;;;2.13;;
16516;SDS011;8371;52.272;9.746;2023-07-24T12:09:02;2.20;;;2.20;;
16516;SDS011;8371;52.272;9.746;2023-07-24T12:11:30;2.30;;;2.23;;
16516;SDS011;8371;52.272;9.746;2023-07-24T12:13:56;2.23;;;2.17;;
16516;SDS011;8371;52.272;9.746;2023-07-24T12:16:22;2.33;;;2.23;;
16516;SDS011;8371;52.272;9.746;2023-07-24T12:18:48;2.17;;;2.17;;
16516;SDS011;8371;52.272;9.746;2023-07-24T12:21:14;2.00;;;2.00;;
16516;SDS011;8371;52.272;9.746;2023-07-24T12:23:40;2.00;;;2.00;;
16516;SDS011;8371;52.272;9.746;2023-07-24T12:26:05;1.97;;;1.97;;
16516;SDS011;8371;52.272;9.746;2023-07-24T12:28:31;2.10;;;2.10;;
16516;SDS011;8371;52.272;9.746;2023-07-24T12:30:57;2.00;;;2.00;;
16516;SDS011;8371;52.272;9.746;2023-07-24T12:33:22;6.00;;;1.90;;
16516;SDS011;8371;52.272;9.746;2023-07-24T12:35:49;2.37;;;2.27;;
16516;SDS011;8371;52.272;9.746;2023-07-24T12:38:15;3.53;;;2.00;;
16516;SDS011;8371;52.272;9.746;2023-07-24T12:40:41;1.47;;;1.47;;
16516;SDS011;8371;52.272;9.746;2023-07-24T12:43:06;1.83;;;1.83;;
16516;SDS011;8371;52.272;9.746;2023-07-24T12:45:32;2.03;;;2.03;;
16516;SDS011;8371;52.272;9.746;2023-07-24T12:47:58;1.63;;;1.63;;
16516;SDS011;8371;52.272;9.746;2023-07-24T12:50:23;1.63;;;1.63;;
16516;SDS011;8371;52.272;9.746;2023-07-24T12:52:49;1.70;;;1.70;;
16516;SDS011;8371;52.272;9.746;2023-07-24T12:55:15;1.87;;;1.87;;
16516;SDS011;8371;52.272;9.746;2023-07-24T12:57:41;1.90;;;1.90;;
16516;SDS011;8371;52.272;9.746;2023-07-24T13:00:07;1.63;;;1.63;;
16516;SDS011;8371;52.272;9.746;2023-07-24T13:02:34;1.90;;;1.80;;
16516;SDS011;8371;52.272;9.746;2023-07-24T13:05:00;1.70;;;1.60;;
16516;SDS011;8371;52.272;9.746;2023-07-24T13:07:27;1.50;;;1.50;;
16516;SDS011;8371;52.272;9.746;2023-07-24T13:09:54;2.00;;;2.00;;
16516;SDS011;8371;52.272;9.746;2023-07-24T13:12:20;2.20;;;2.10;;
16516;SDS011;8371;52.272;9.746;2023-07-24T13:14:46;1.80;;;1.80;;
16516;SDS011;8371;52.272;9.746;2023-07-24T13:17:11;2.00;;;2.00;;
16516;SDS011;8371;52.272;9.746;2023-07-24T13:19:37;1.80;;;1.77;;
16516;SDS011;8371;52.272;9.746;2023-07-24T13:22:03;1.87;;;1.87;;
16516;SDS011;8371;52.272;9.746;2023-07-24T13:24:29;2.43;;;2.33;;
16516;SDS011;8371;52.272;9.746;2023-07-24T13:26:55;2.47;;;2.37;;
16516;SDS011;8371;52.272;9.746;2023-07-24T13:29:20;1.93;;;1.93;;
16516;SDS011;8371;52.272;9.746;2023-07-24T13:31:46;1.83;;;1.83;;
16516;SDS011;8371;52.272;9.746;2023-07-24T13:34:12;2.40;;;2.30;;
16516;SDS011;8371;52.272;9.746;2023-07-24T13:36:37;1.77;;;1.77;;
16516;SDS011;8371;52.272;9.746;2023-07-24T13:39:03;2.23;;;2.13;;
16516;SDS011;8371;52.272;9.746;2023-07-24T13:41:29;2.20;;;2.10;;
16516;SDS011;8371;52.272;9.746;2023-07-24T13:43:55;2.13;;;2.07;;
16516;SDS011;8371;52.272;9.746;2023-07-24T13:46:21;1.67;;;1.67;;
16516;SDS011;8371;52.272;9.746;2023-07-24T13:48:46;2.03;;;1.93;;
16516;SDS011;8371;52.272;9.746;2023-07-24T13:51:12;1.93;;;1.83;;
16516;SDS011;8371;52.272;9.746;2023-07-24T13:53:38;1.70;;;1.70;;
16516;SDS011;8371;52.272;9.746;2023-07-24T13:56:03;1.80;;;1.80;;
16516;SDS011;8371;52.272;9.746;2023-07-24T13:58:29;1.70;;;1.70;;
16516;SDS011;8371;52.272;9.746;2023-07-24T14:00:55;1.90;;;1.80;;
16516;SDS011;8371;52.272;9.746;2023-07-24T14:03:21;1.70;;;1.70;;
16516;SDS011;8371;52.272;9.746;2023-07-24T14:05:49;1.80;;;1.70;;
16516;SDS011;8371;52.272;9.746;2023-07-24T14:08:14;1.90;;;1.80;;
16516;SDS011;8371;52.272;9.746;2023-07-24T14:10:40;1.73;;;1.70;;
16516;SDS011;8371;52.272;9.746;2023-07-24T14:13:06;2.00;;;1.90;;
16516;SDS011;8371;52.272;9.746;2023-07-24T14:15:32;1.50;;;1.50;;
16516;SDS011;8371;52.272;9.746;2023-07-24T14:17:57;1.23;;;1.23;;
16516;SDS011;8371;52.272;9.746;2023-07-24T14:20:23;1.47;;;1.47;;
16516;SDS011;8371;52.272;9.746;2023-07-24T14:22:49;1.37;;;1.10;;
16516;SDS011;8371;52.272;9.746;2023-07-24T14:25:14;1.40;;;1.40;;
16516;SDS011;8371;52.272;9.746;2023-07-24T14:27:40;1.37;;;1.37;;
16516;SDS011;8371;52.272;9.746;2023-07-24T14:30:08;1.23;;;1.23;;
16516;SDS011;8371;52.272;9.746;2023-07-24T14:32:35;1.17;;;1.17;;
16516;SDS011;8371;52.272;9.746;2023-07-24T14:35:00;1.00;;;1.00;;
16516;SDS011;8371;52.272;9.746;2023-07-24T14:37:26;0.83;;;0.83;;
16516;SDS011;8371;52.272;9.746;2023-07-24T14:39:52;1.03;;;1.03;;
16516;SDS011;8371;52.272;9.746;2023-07-24T14:42:17;0.83;;;0.83;;
16516;SDS011;8371;52.272;9.746;2023-07-24T14:44:43;1.20;;;0.90;;
16516;SDS011;8371;52.272;9.746;2023-07-24T14:47:09;0.70;;;0.70;;
16516;SDS011;8371;52.272;9.746;2023-07-24T14:49:34;0.70;;;0.70;;
16516;SDS011;8371;52.272;9.746;2023-07-24T14:52:00;1.33;;;1.33;;
16516;SDS011;8371;52.272;9.746;2023-07-24T14:54:26;0.90;;;0.90;;
16516;SDS011;8371;52.272;9.746;2023-07-24T14:56:51;0.90;;;0.90;;